sensor_id;sensor_type;location;lat;lon;timestamp;temperature;humidity
52531;DHT22;38441;52.894;6.040;2023-04-03T00:01:15;2.90;99.90
52531;DHT22;38441;52.894;6.040;2023-04-03T00:37:54;2.80;99.90
52531;DHT22;38441;52.894;6.040;2023-04-03T00:42:48;2.60;99.90
52531;DHT22;38441;52.894;6.040;2023-04-03T01:00:13;2.40;99.90
52531;DHT22;38441;52.894;6.040;2023-04-03T01:10:05;2.50;99.90
52531;DHT22;38441;52.894;6.040;2023-04-03T01:15:17;2.50;99.90
52531;DHT22;38441;52.894;6.040;2023-04-03T01:30:28;2.40;99.90
52531;DHT22;38441;52.894;6.040;2023-04-03T02:41:07;1.80;99.90
52531;DHT22;38441;52.894;6.040;2023-04-03T07:41:02;3.40;99.90
52531;DHT22;38441;52.894;6.040;2023-04-03T07:48:25;3.70;99.90
52531;DHT22;38441;52.894;6.040;2023-04-03T07:55:46;4.10;99.90
52531;DHT22;38441;52.894;6.040;2023-04-03T07:58:14;4.10;99.90
52531;DHT22;38441;52.894;6.040;2023-04-03T08:05:37;4.30;99.90
52531;DHT22;38441;52.894;6.040;2023-04-03T08:25:06;5.00;99.90
52531;DHT22;38441;52.894;6.040;2023-04-03T08:45:01;5.70;99.90
52531;DHT22;38441;52.894;6.040;2023-04-03T08:47:38;5.90;99.90
52531;DHT22;38441;52.894;6.040;2023-04-03T08:50:07;5.70;99.90
52531;DHT22;38441;52.894;6.040;2023-04-03T08:52:39;5.80;99.90
52531;DHT22;38441;52.894;6.040;2023-04-03T08:55:26;6.00;99.90
52531;DHT22;38441;52.894;6.040;2023-04-03T08:58:01;5.80;99.90
52531;DHT22;38441;52.894;6.040;2023-04-03T09:00:30;6.10;99.90
52531;DHT22;38441;52.894;6.040;2023-04-03T09:05:35;6.20;99.90
52531;DHT22;38441;52.894;6.040;2023-04-03T09:08:21;6.30;99.90
52531;DHT22;38441;52.894;6.040;2023-04-03T09:10:49;6.20;99.90
52531;DHT22;38441;52.894;6.040;2023-04-03T09:13:24;6.50;99.90
52531;DHT22;38441;52.894;6.040;2023-04-03T09:15:53;6.60;99.90
52531;DHT22;38441;52.894;6.040;2023-04-03T09:26:07;6.80;99.90
52531;DHT22;38441;52.894;6.040;2023-04-03T09:28:38;6.80;99.90
52531;DHT22;38441;52.894;6.040;2023-04-03T09:31:40;6.80;99.90
52531;DHT22;38441;52.894;6.040;2023-04-03T09:34:22;7.20;99.90
52531;DHT22;38441;52.894;6.040;2023-04-03T09:36:53;7.20;99.90
52531;DHT22;38441;52.894;6.040;2023-04-03T09:39:21;7.40;99.90
52531;DHT22;38441;52.894;6.040;2023-04-03T09:42:03;7.20;99.90
52531;DHT22;38441;52.894;6.040;2023-04-03T09:54:32;7.60;99.90
52531;DHT22;38441;52.894;6.040;2023-04-03T09:57:04;7.60;99.90
52531;DHT22;38441;52.894;6.040;2023-04-03T09:59:31;7.60;99.90
52531;DHT22;38441;52.894;6.040;2023-04-03T10:02:28;7.90;99.90
52531;DHT22;38441;52.894;6.040;2023-04-03T10:07:35;7.90;99.90
52531;DHT22;38441;52.894;6.040;2023-04-03T10:15:12;7.80;99.90
52531;DHT22;38441;52.894;6.040;2023-04-03T10:20:45;8.00;99.90
52531;DHT22;38441;52.894;6.040;2023-04-03T10:23:18;7.80;99.90
52531;DHT22;38441;52.894;6.040;2023-04-03T10:26:17;8.10;99.90
52531;DHT22;38441;52.894;6.040;2023-04-03T10:31:48;8.10;99.90
52531;DHT22;38441;52.894;6.040;2023-04-03T10:34:33;8.00;99.90
52531;DHT22;38441;52.894;6.040;2023-04-03T10:48:15;8.40;99.90
52531;DHT22;38441;52.894;6.040;2023-04-03T10:55:43;8.50;99.90
52531;DHT22;38441;52.894;6.040;2023-04-03T10:58:31;8.70;99.90
52531;DHT22;38441;52.894;6.040;2023-04-03T11:01:02;8.70;99.90
52531;DHT22;38441;52.894;6.040;2023-04-03T11:03:35;8.70;99.90
52531;DHT22;38441;52.894;6.040;2023-04-03T11:06:05;8.90;99.90
52531;DHT22;38441;52.894;6.040;2023-04-03T11:08:52;8.90;99.90
52531;DHT22;38441;52.894;6.040;2023-04-03T11:11:25;9.10;99.90
52531;DHT22;38441;52.894;6.040;2023-04-03T11:14:03;9.00;99.90
52531;DHT22;38441;52.894;6.040;2023-04-03T11:16:33;8.50;99.90
52531;DHT22;38441;52.894;6.040;2023-04-03T11:19:21;9.30;99.90
52531;DHT22;38441;52.894;6.040;2023-04-03T11:22:29;9.30;99.90
52531;DHT22;38441;52.894;6.040;2023-04-03T11:27:44;9.20;99.90
52531;DHT22;38441;52.894;6.040;2023-04-03T11:33:07;9.20;99.90
52531;DHT22;38441;52.894;6.040;2023-04-03T11:35:45;9.20;99.90
52531;DHT22;38441;52.894;6.040;2023-04-03T11:38:32;9.50;99.90
52531;DHT22;38441;52.894;6.040;2023-04-03T11:41:03;9.30;99.90
52531;DHT22;38441;52.894;6.040;2023-04-03T11:43:32;9.50;99.90
52531;DHT22;38441;52.894;6.040;2023-04-03T11:46:05;9.40;99.90
52531;DHT22;38441;52.894;6.040;2023-04-03T11:51:37;8.20;99.90
52531;DHT22;38441;52.894;6.040;2023-04-03T11:53:49;13.00;99.90
52531;DHT22;38441;52.894;6.040;2023-04-03T11:56:37;9.30;99.90
52531;DHT22;38441;52.894;6.040;2023-04-03T12:01:59;9.60;99.90
52531;DHT22;38441;52.894;6.040;2023-04-03T12:04:29;8.50;99.90
52531;DHT22;38441;52.894;6.040;2023-04-03T12:07:18;11.10;99.90
52531;DHT22;38441;52.894;6.040;2023-04-03T12:12:39;9.90;99.90
52531;DHT22;38441;52.894;6.040;2023-04-03T12:15:22;12.40;99.90
52531;DHT22;38441;52.894;6.040;2023-04-03T12:17:48;8.30;99.90
52531;DHT22;38441;52.894;6.040;2023-04-03T12:23:08;10.00;99.90
52531;DHT22;38441;52.894;6.040;2023-04-03T12:25:49;9.70;99.90
52531;DHT22;38441;52.894;6.040;2023-04-03T12:28:18;11.60;99.90
52531;DHT22;38441;52.894;6.040;2023-04-03T12:30:43;8.60;99.90
52531;DHT22;38441;52.894;6.040;2023-04-03T12:36:13;10.20;99.90
52531;DHT22;38441;52.894;6.040;2023-04-03T12:39:03;10.10;99.90
52531;DHT22;38441;52.894;6.040;2023-04-03T12:41:54;11.40;99.90
52531;DHT22;38441;52.894;6.040;2023-04-03T12:44:49;10.60;99.90
52531;DHT22;38441;52.894;6.040;2023-04-03T12:47:35;10.20;99.90
52531;DHT22;38441;52.894;6.040;2023-04-03T12:52:50;10.10;99.90
52531;DHT22;38441;52.894;6.040;2023-04-03T12:55:19;9.50;99.90
52531;DHT22;38441;52.894;6.040;2023-04-03T12:57:46;9.10;99.90
52531;DHT22;38441;52.894;6.040;2023-04-03T13:00:35;10.20;99.90
52531;DHT22;38441;52.894;6.040;2023-04-03T13:03:24;10.50;99.90
52531;DHT22;38441;52.894;6.040;2023-04-03T13:06:17;11.70;99.90
52531;DHT22;38441;52.894;6.040;2023-04-03T13:08:59;10.40;99.90
52531;DHT22;38441;52.894;6.040;2023-04-03T13:11:42;10.20;99.90
52531;DHT22;38441;52.894;6.040;2023-04-03T13:14:22;11.60;99.90
52531;DHT22;38441;52.894;6.040;2023-04-03T13:17:04;10.70;99.90
52531;DHT22;38441;52.894;6.040;2023-04-03T13:19:31;11.80;99.90
52531;DHT22;38441;52.894;6.040;2023-04-03T13:22:04;10.30;99.90
52531;DHT22;38441;52.894;6.040;2023-04-03T13:24:34;10.20;99.90
52531;DHT22;38441;52.894;6.040;2023-04-03T13:27:01;10.50;99.90
52531;DHT22;38441;52.894;6.040;2023-04-03T13:29:30;10.30;99.90
52531;DHT22;38441;52.894;6.040;2023-04-03T13:31:57;10.60;99.90
52531;DHT22;38441;52.894;6.040;2023-04-03T13:34:25;10.80;99.90
52531;DHT22;38441;52.894;6.040;2023-04-03T13:39:23;12.80;99.90
52531;DHT22;38441;52.894;6.040;2023-04-03T13:41:55;11.10;99.90
52531;DHT22;38441;52.894;6.040;2023-04-03T13:49:41;11.80;99.90
52531;DHT22;38441;52.894;6.040;2023-04-03T13:52:30;10.90;99.90
52531;DHT22;38441;52.894;6.040;2023-04-03T13:55:14;12.70;99.90
52531;DHT22;38441;52.894;6.040;2023-04-03T14:00:28;11.30;99.90
52531;DHT22;38441;52.894;6.040;2023-04-03T14:02:55;10.10;99.90
52531;DHT22;38441;52.894;6.040;2023-04-03T14:05:22;11.40;99.90
52531;DHT22;38441;52.894;6.040;2023-04-03T14:07:48;10.50;99.90
52531;DHT22;38441;52.894;6.040;2023-04-03T14:10:14;9.70;99.90
52531;DHT22;38441;52.894;6.040;2023-04-03T14:12:40;11.20;99.90
52531;DHT22;38441;52.894;6.040;2023-04-03T14:15:23;10.50;99.90
52531;DHT22;38441;52.894;6.040;2023-04-03T14:17:50;11.70;99.90
52531;DHT22;38441;52.894;6.040;2023-04-03T14:20:21;10.60;99.90
52531;DHT22;38441;52.894;6.040;2023-04-03T14:22:48;10.50;99.90
52531;DHT22;38441;52.894;6.040;2023-04-03T14:25:15;9.60;99.90
52531;DHT22;38441;52.894;6.040;2023-04-03T14:27:44;11.80;99.90
52531;DHT22;38441;52.894;6.040;2023-04-03T14:30:20;11.00;99.90
52531;DHT22;38441;52.894;6.040;2023-04-03T14:32:47;11.60;99.90
52531;DHT22;38441;52.894;6.040;2023-04-03T14:35:14;12.00;99.90
52531;DHT22;38441;52.894;6.040;2023-04-03T14:37:41;10.80;99.90
52531;DHT22;38441;52.894;6.040;2023-04-03T14:40:08;11.80;99.90
52531;DHT22;38441;52.894;6.040;2023-04-03T14:42:36;10.80;99.90
52531;DHT22;38441;52.894;6.040;2023-04-03T14:45:05;12.90;99.90
52531;DHT22;38441;52.894;6.040;2023-04-03T14:47:31;10.60;99.90
52531;DHT22;38441;52.894;6.040;2023-04-03T14:49:57;12.20;99.90
52531;DHT22;38441;52.894;6.040;2023-04-03T14:52:29;10.70;98.40
52531;DHT22;38441;52.894;6.040;2023-04-03T14:54:56;11.30;99.30
52531;DHT22;38441;52.894;6.040;2023-04-03T14:57:24;10.60;98.90
52531;DHT22;38441;52.894;6.040;2023-04-03T14:59:50;10.30;99.10
52531;DHT22;38441;52.894;6.040;2023-04-03T15:02:34;10.40;98.50
52531;DHT22;38441;52.894;6.040;2023-04-03T15:05:03;11.50;99.70
52531;DHT22;38441;52.894;6.040;2023-04-03T15:07:32;10.30;98.40
52531;DHT22;38441;52.894;6.040;2023-04-03T15:10:14;11.70;99.90
52531;DHT22;38441;52.894;6.040;2023-04-03T15:12:41;10.70;99.40
52531;DHT22;38441;52.894;6.040;2023-04-03T15:15:08;10.90;99.60
52531;DHT22;38441;52.894;6.040;2023-04-03T15:17:36;10.30;99.90
52531;DHT22;38441;52.894;6.040;2023-04-03T15:20:02;12.00;99.90
52531;DHT22;38441;52.894;6.040;2023-04-03T15:22:28;10.30;99.90
52531;DHT22;38441;52.894;6.040;2023-04-03T15:24:54;10.40;99.90
52531;DHT22;38441;52.894;6.040;2023-04-03T15:27:19;10.20;98.30
52531;DHT22;38441;52.894;6.040;2023-04-03T15:29:45;9.20;99.60
52531;DHT22;38441;52.894;6.040;2023-04-03T15:32:11;10.90;99.80
52531;DHT22;38441;52.894;6.040;2023-04-03T15:34:38;9.90;97.90
52531;DHT22;38441;52.894;6.040;2023-04-03T15:37:04;9.00;98.10
52531;DHT22;38441;52.894;6.040;2023-04-03T15:39:30;10.10;98.60
52531;DHT22;38441;52.894;6.040;2023-04-03T15:41:56;11.20;99.90
52531;DHT22;38441;52.894;6.040;2023-04-03T15:44:25;8.50;99.90
52531;DHT22;38441;52.894;6.040;2023-04-03T15:46:51;8.50;99.70
52531;DHT22;38441;52.894;6.040;2023-04-03T15:49:17;10.10;99.90
52531;DHT22;38441;52.894;6.040;2023-04-03T15:51:44;11.10;99.90
52531;DHT22;38441;52.894;6.040;2023-04-03T15:54:09;11.10;99.90
52531;DHT22;38441;52.894;6.040;2023-04-03T15:56:35;10.00;98.30
52531;DHT22;38441;52.894;6.040;2023-04-03T15:59:01;8.70;99.60
52531;DHT22;38441;52.894;6.040;2023-04-03T16:01:27;9.70;98.80
52531;DHT22;38441;52.894;6.040;2023-04-03T16:03:53;9.70;98.50
52531;DHT22;38441;52.894;6.040;2023-04-03T16:06:19;9.70;99.40
52531;DHT22;38441;52.894;6.040;2023-04-03T16:08:46;11.40;99.90
52531;DHT22;38441;52.894;6.040;2023-04-03T16:11:13;10.10;99.80
52531;DHT22;38441;52.894;6.040;2023-04-03T16:13:38;10.70;99.90
52531;DHT22;38441;52.894;6.040;2023-04-03T16:16:05;11.80;99.90
52531;DHT22;38441;52.894;6.040;2023-04-03T16:18:32;9.30;99.70
52531;DHT22;38441;52.894;6.040;2023-04-03T16:20:59;10.30;99.90
52531;DHT22;38441;52.894;6.040;2023-04-03T16:23:24;11.40;99.90
52531;DHT22;38441;52.894;6.040;2023-04-03T16:25:50;9.10;99.70
52531;DHT22;38441;52.894;6.040;2023-04-03T16:28:17;9.60;99.90
52531;DHT22;38441;52.894;6.040;2023-04-03T16:30:44;9.00;99.90
52531;DHT22;38441;52.894;6.040;2023-04-03T16:33:11;8.90;99.90
52531;DHT22;38441;52.894;6.040;2023-04-03T16:35:37;8.80;99.90
52531;DHT22;38441;52.894;6.040;2023-04-03T16:40:29;8.70;99.60
52531;DHT22;38441;52.894;6.040;2023-04-03T16:42:55;8.70;99.90
52531;DHT22;38441;52.894;6.040;2023-04-03T16:45:21;8.90;99.90
52531;DHT22;38441;52.894;6.040;2023-04-03T16:48:23;8.80;99.90
52531;DHT22;38441;52.894;6.040;2023-04-03T16:50:49;7.90;99.90
52531;DHT22;38441;52.894;6.040;2023-04-03T16:53:21;8.60;99.90
52531;DHT22;38441;52.894;6.040;2023-04-03T16:58:14;8.50;99.90
52531;DHT22;38441;52.894;6.040;2023-04-03T17:00:41;8.40;99.90
52531;DHT22;38441;52.894;6.040;2023-04-03T17:03:07;8.40;99.90
52531;DHT22;38441;52.894;6.040;2023-04-03T17:05:32;9.50;99.90
52531;DHT22;38441;52.894;6.040;2023-04-03T17:10:25;8.10;99.90
52531;DHT22;38441;52.894;6.040;2023-04-03T17:15:16;8.20;99.90
52531;DHT22;38441;52.894;6.040;2023-04-03T17:17:42;8.90;99.90
52531;DHT22;38441;52.894;6.040;2023-04-03T17:20:09;8.20;99.90
52531;DHT22;38441;52.894;6.040;2023-04-03T17:22:35;8.00;99.90
52531;DHT22;38441;52.894;6.040;2023-04-03T17:27:27;7.90;99.90
52531;DHT22;38441;52.894;6.040;2023-04-03T17:34:47;7.70;99.90
52531;DHT22;38441;52.894;6.040;2023-04-03T17:37:13;7.70;99.90
52531;DHT22;38441;52.894;6.040;2023-04-03T17:39:39;7.70;99.90
52531;DHT22;38441;52.894;6.040;2023-04-03T17:42:04;7.70;99.90
52531;DHT22;38441;52.894;6.040;2023-04-03T17:49:22;7.50;99.90
52531;DHT22;38441;52.894;6.040;2023-04-03T17:54:15;7.50;99.90
52531;DHT22;38441;52.894;6.040;2023-04-03T17:59:13;7.40;99.90
52531;DHT22;38441;52.894;6.040;2023-04-03T18:04:05;7.30;99.90
52531;DHT22;38441;52.894;6.040;2023-04-03T18:06:41;7.20;99.90
52531;DHT22;38441;52.894;6.040;2023-04-03T18:09:17;7.30;99.90
52531;DHT22;38441;52.894;6.040;2023-04-03T18:11:45;7.20;99.90
52531;DHT22;38441;52.894;6.040;2023-04-03T18:14:13;7.20;99.90
52531;DHT22;38441;52.894;6.040;2023-04-03T18:16:40;7.10;99.90
52531;DHT22;38441;52.894;6.040;2023-04-03T18:19:06;7.00;99.90
52531;DHT22;38441;52.894;6.040;2023-04-03T18:21:37;7.00;99.90
52531;DHT22;38441;52.894;6.040;2023-04-03T18:24:04;7.00;99.90
52531;DHT22;38441;52.894;6.040;2023-04-03T18:26:32;6.90;99.90
52531;DHT22;38441;52.894;6.040;2023-04-03T18:29:02;6.90;99.90
52531;DHT22;38441;52.894;6.040;2023-04-03T18:31:30;6.90;99.90
52531;DHT22;38441;52.894;6.040;2023-04-03T18:36:24;6.60;99.90
52531;DHT22;38441;52.894;6.040;2023-04-03T18:41:17;6.50;99.90
52531;DHT22;38441;52.894;6.040;2023-04-03T19:27:38;5.50;99.90
52531;DHT22;38441;52.894;6.040;2023-04-03T19:30:05;5.40;99.90
52531;DHT22;38441;52.894;6.040;2023-04-03T19:37:25;5.20;99.90
52531;DHT22;38441;52.894;6.040;2023-04-03T19:44:44;5.10;99.90
52531;DHT22;38441;52.894;6.040;2023-04-03T19:52:03;4.90;99.90
52531;DHT22;38441;52.894;6.040;2023-04-03T19:56:56;5.00;99.90
52531;DHT22;38441;52.894;6.040;2023-04-03T20:21:30;4.70;99.90
52531;DHT22;38441;52.894;6.040;2023-04-03T20:23:57;4.70;99.90
52531;DHT22;38441;52.894;6.040;2023-04-03T20:26:24;4.60;99.90
52531;DHT22;38441;52.894;6.040;2023-04-03T20:28:53;4.40;99.90
52531;DHT22;38441;52.894;6.040;2023-04-03T20:31:20;4.50;99.90
52531;DHT22;38441;52.894;6.040;2023-04-03T20:45:59;4.30;99.90
52531;DHT22;38441;52.894;6.040;2023-04-03T20:55:58;4.20;99.90
52531;DHT22;38441;52.894;6.040;2023-04-03T21:03:21;4.10;99.90
52531;DHT22;38441;52.894;6.040;2023-04-03T21:37:03;3.80;99.90
52531;DHT22;38441;52.894;6.040;2023-04-03T21:46:48;3.80;99.90
52531;DHT22;38441;52.894;6.040;2023-04-03T22:03:58;3.70;99.90
52531;DHT22;38441;52.894;6.040;2023-04-03T22:13:43;3.60;99.90
52531;DHT22;38441;52.894;6.040;2023-04-03T22:16:12;3.70;99.90
52531;DHT22;38441;52.894;6.040;2023-04-03T22:35:48;3.50;99.90
52531;DHT22;38441;52.894;6.040;2023-04-03T23:00:11;3.30;99.90
